sensor_id;sensor_type;location;lat;lon;timestamp;pressure;altitude;pressure_sealevel;temperature;humidity
57628;BME280;43451;49.060;10.616;2023-04-25T00:00:35;96076.22;;;6.50;100.00
57628;BME280;43451;49.060;10.616;2023-04-25T00:03:00;96083.50;;;6.46;100.00
57628;BME280;43451;49.060;10.616;2023-04-25T00:05:26;96076.22;;;6.50;100.00
57628;BME280;43451;49.060;10.616;2023-04-25T00:07:51;96070.81;;;6.50;100.00
57628;BME280;43451;49.060;10.616;2023-04-25T00:10:17;96068.13;;;6.50;100.00
57628;BME280;43451;49.060;10.616;2023-04-25T00:12:42;96071.19;;;6.53;100.00
57628;BME280;43451;49.060;10.616;2023-04-25T00:15:08;96065.81;;;6.53;100.00
57628;BME280;43451;49.060;10.616;2023-04-25T00:17:34;96073.91;;;6.53;100.00
57628;BME280;43451;49.060;10.616;2023-04-25T00:20:00;96065.00;;;6.41;100.00
57628;BME280;43451;49.060;10.616;2023-04-25T00:22:26;96072.72;;;6.43;100.00
57628;BME280;43451;49.060;10.616;2023-04-25T00:24:51;96063.41;;;6.33;100.00
57628;BME280;43451;49.060;10.616;2023-04-25T00:27:18;96057.25;;;6.29;100.00
57628;BME280;43451;49.060;10.616;2023-04-25T00:29:43;96057.97;;;6.19;100.00
57628;BME280;43451;49.060;10.616;2023-04-25T00:32:09;96060.28;;;6.17;100.00
57628;BME280;43451;49.060;10.616;2023-04-25T00:34:35;96055.63;;;6.14;100.00
57628;BME280;43451;49.060;10.616;2023-04-25T00:37:00;96063.31;;;6.08;100.00
57628;BME280;43451;49.060;10.616;2023-04-25T00:39:27;96064.44;;;5.96;100.00
57628;BME280;43451;49.060;10.616;2023-04-25T00:41:52;96058.56;;;5.87;100.00
57628;BME280;43451;49.060;10.616;2023-04-25T00:44:19;96057.72;;;5.76;100.00
57628;BME280;43451;49.060;10.616;2023-04-25T00:46:45;96060.41;;;5.76;100.00
57628;BME280;43451;49.060;10.616;2023-04-25T00:49:12;96055.81;;;5.80;100.00
57628;BME280;43451;49.060;10.616;2023-04-25T00:51:40;96064.72;;;5.84;100.00
57628;BME280;43451;49.060;10.616;2023-04-25T00:54:06;96052.47;;;5.97;100.00
57628;BME280;43451;49.060;10.616;2023-04-25T00:56:31;96050.47;;;5.87;100.00
57628;BME280;43451;49.060;10.616;2023-04-25T00:58:57;96053.19;;;5.91;100.00
57628;BME280;43451;49.060;10.616;2023-04-25T01:01:22;96053.63;;;5.96;100.00
57628;BME280;43451;49.060;10.616;2023-04-25T01:03:48;96051.69;;;5.93;100.00
57628;BME280;43451;49.060;10.616;2023-04-25T01:06:15;96045.47;;;5.89;100.00
57628;BME280;43451;49.060;10.616;2023-04-25T01:08:41;96052.41;;;5.90;100.00
57628;BME280;43451;49.060;10.616;2023-04-25T01:11:06;96056.28;;;5.93;100.00
57628;BME280;43451;49.060;10.616;2023-04-25T01:13:32;96051.59;;;5.86;100.00
57628;BME280;43451;49.060;10.616;2023-04-25T01:15:58;96066.25;;;5.85;100.00
57628;BME280;43451;49.060;10.616;2023-04-25T01:18:24;96054.41;;;5.97;100.00
57628;BME280;43451;49.060;10.616;2023-04-25T01:20:53;96056.34;;;6.00;100.00
57628;BME280;43451;49.060;10.616;2023-04-25T01:23:19;96053.28;;;6.09;100.00
57628;BME280;43451;49.060;10.616;2023-04-25T01:25:44;96044.88;;;6.17;100.00
57628;BME280;43451;49.060;10.616;2023-04-25T01:28:10;96043.41;;;6.41;100.00
57628;BME280;43451;49.060;10.616;2023-04-25T01:30:35;96036.09;;;6.38;100.00
57628;BME280;43451;49.060;10.616;2023-04-25T01:33:01;96030.34;;;6.50;100.00
57628;BME280;43451;49.060;10.616;2023-04-25T01:35:29;96037.25;;;6.44;100.00
57628;BME280;43451;49.060;10.616;2023-04-25T01:37:54;96029.53;;;6.39;100.00
57628;BME280;43451;49.060;10.616;2023-04-25T01:40:20;96039.13;;;6.33;100.00
57628;BME280;43451;49.060;10.616;2023-04-25T01:42:46;96031.03;;;6.30;100.00
57628;BME280;43451;49.060;10.616;2023-04-25T01:45:11;96032.56;;;6.27;100.00
57628;BME280;43451;49.060;10.616;2023-04-25T01:47:37;96032.56;;;6.20;100.00
57628;BME280;43451;49.060;10.616;2023-04-25T01:50:04;96024.47;;;6.23;100.00
57628;BME280;43451;49.060;10.616;2023-04-25T01:52:30;96030.25;;;6.22;100.00
57628;BME280;43451;49.060;10.616;2023-04-25T01:54:57;96018.28;;;6.16;100.00
57628;BME280;43451;49.060;10.616;2023-04-25T01:57:25;96026.75;;;6.21;100.00
57628;BME280;43451;49.060;10.616;2023-04-25T01:59:50;96020.59;;;6.21;100.00
57628;BME280;43451;49.060;10.616;2023-04-25T02:02:16;96019.47;;;6.22;100.00
57628;BME280;43451;49.060;10.616;2023-04-25T02:04:41;96018.66;;;6.14;100.00
57628;BME280;43451;49.060;10.616;2023-04-25T02:07:06;96007.16;;;6.28;100.00
57628;BME280;43451;49.060;10.616;2023-04-25T02:09:32;96010.22;;;6.26;100.00
57628;BME280;43451;49.060;10.616;2023-04-25T02:11:57;96012.50;;;6.24;100.00
57628;BME280;43451;49.060;10.616;2023-04-25T02:14:23;96013.69;;;6.23;100.00
57628;BME280;43451;49.060;10.616;2023-04-25T02:16:48;96015.59;;;6.23;100.00
57628;BME280;43451;49.060;10.616;2023-04-25T02:19:14;96015.63;;;6.26;100.00
57628;BME280;43451;49.060;10.616;2023-04-25T02:21:39;96028.78;;;6.42;100.00
57628;BME280;43451;49.060;10.616;2023-04-25T02:24:05;96018.03;;;6.57;100.00
57628;BME280;43451;49.060;10.616;2023-04-25T02:26:30;96024.13;;;6.36;100.00
57628;BME280;43451;49.060;10.616;2023-04-25T02:28:56;96016.41;;;6.34;100.00
57628;BME280;43451;49.060;10.616;2023-04-25T02:31:21;96026.41;;;6.30;100.00
57628;BME280;43451;49.060;10.616;2023-04-25T02:33:47;96029.84;;;6.20;100.00
57628;BME280;43451;49.060;10.616;2023-04-25T02:36:12;96034.06;;;6.17;100.00
57628;BME280;43451;49.060;10.616;2023-04-25T02:38:37;96026.31;;;6.09;100.00
57628;BME280;43451;49.060;10.616;2023-04-25T02:41:03;96031.72;;;6.09;100.00
57628;BME280;43451;49.060;10.616;2023-04-25T02:43:28;96021.00;;;6.23;100.00
57628;BME280;43451;49.060;10.616;2023-04-25T02:45:53;96024.88;;;6.25;100.00
57628;BME280;43451;49.060;10.616;2023-04-25T02:48:19;96028.34;;;6.33;100.00
57628;BME280;43451;49.060;10.616;2023-04-25T02:50:44;96019.50;;;6.40;100.00
57628;BME280;43451;49.060;10.616;2023-04-25T02:53:10;96010.25;;;6.37;100.00
57628;BME280;43451;49.060;10.616;2023-04-25T02:55:35;96019.09;;;6.34;100.00
57628;BME280;43451;49.060;10.616;2023-04-25T02:58:01;96011.06;;;6.56;100.00
57628;BME280;43451;49.060;10.616;2023-04-25T03:00:26;96011.84;;;6.53;100.00
57628;BME280;43451;49.060;10.616;2023-04-25T03:02:51;96008.75;;;6.50;100.00
57628;BME280;43451;49.060;10.616;2023-04-25T03:05:17;96007.97;;;6.46;100.00
57628;BME280;43451;49.060;10.616;2023-04-25T03:07:42;96014.13;;;6.43;100.00
57628;BME280;43451;49.060;10.616;2023-04-25T03:10:08;96014.50;;;6.38;100.00
57628;BME280;43451;49.060;10.616;2023-04-25T03:12:34;96001.00;;;6.35;100.00
57628;BME280;43451;49.060;10.616;2023-04-25T03:14:59;96009.47;;;6.37;100.00
57628;BME280;43451;49.060;10.616;2023-04-25T03:17:25;96001.78;;;6.32;100.00
57628;BME280;43451;49.060;10.616;2023-04-25T03:19:50;96004.09;;;6.40;100.00
57628;BME280;43451;49.060;10.616;2023-04-25T03:22:15;96000.63;;;6.43;100.00
57628;BME280;43451;49.060;10.616;2023-04-25T03:24:41;96002.19;;;6.44;100.00
57628;BME280;43451;49.060;10.616;2023-04-25T03:27:06;96008.69;;;6.33;100.00
57628;BME280;43451;49.060;10.616;2023-04-25T03:29:31;95997.53;;;6.34;100.00
57628;BME280;43451;49.060;10.616;2023-04-25T03:31:56;95993.28;;;6.30;100.00
57628;BME280;43451;49.060;10.616;2023-04-25T03:34:22;95994.03;;;6.30;100.00
57628;BME280;43451;49.060;10.616;2023-04-25T03:36:48;95994.03;;;6.30;100.00
57628;BME280;43451;49.060;10.616;2023-04-25T03:39:14;95993.28;;;6.26;100.00
57628;BME280;43451;49.060;10.616;2023-04-25T03:41:39;95994.78;;;6.13;100.00
57628;BME280;43451;49.060;10.616;2023-04-25T03:44:05;95992.44;;;6.08;100.00
57628;BME280;43451;49.060;10.616;2023-04-25T03:46:30;96003.19;;;6.00;100.00
57628;BME280;43451;49.060;10.616;2023-04-25T03:48:55;96000.09;;;5.98;100.00
57628;BME280;43451;49.060;10.616;2023-04-25T03:51:21;95995.09;;;5.93;100.00
57628;BME280;43451;49.060;10.616;2023-04-25T03:53:46;96001.63;;;5.96;100.00
57628;BME280;43451;49.060;10.616;2023-04-25T03:56:11;95992.78;;;6.02;100.00
57628;BME280;43451;49.060;10.616;2023-04-25T03:58:36;96001.25;;;5.94;100.00
57628;BME280;43451;49.060;10.616;2023-04-25T04:01:02;95994.72;;;6.05;100.00
57628;BME280;43451;49.060;10.616;2023-04-25T04:03:33;96003.22;;;6.08;100.00
57628;BME280;43451;49.060;10.616;2023-04-25T04:05:59;96004.06;;;6.26;100.00
57628;BME280;43451;49.060;10.616;2023-04-25T04:08:24;96007.59;;;6.41;100.00
57628;BME280;43451;49.060;10.616;2023-04-25T04:10:50;96010.28;;;6.51;100.00
57628;BME280;43451;49.060;10.616;2023-04-25T04:13:15;96012.59;;;6.46;100.00
57628;BME280;43451;49.060;10.616;2023-04-25T04:15:40;96014.13;;;6.47;100.00
57628;BME280;43451;49.060;10.616;2023-04-25T04:18:06;96007.59;;;6.41;100.00
57628;BME280;43451;49.060;10.616;2023-04-25T04:20:31;96002.16;;;6.34;100.00
57628;BME280;43451;49.060;10.616;2023-04-25T04:22:56;96003.75;;;6.56;100.00
57628;BME280;43451;49.060;10.616;2023-04-25T04:25:22;96000.69;;;6.68;100.00
57628;BME280;43451;49.060;10.616;2023-04-25T04:27:47;96008.00;;;6.75;100.00
57628;BME280;43451;49.060;10.616;2023-04-25T04:30:12;96002.63;;;6.79;100.00
57628;BME280;43451;49.060;10.616;2023-04-25T04:32:38;96013.41;;;6.68;100.00
57628;BME280;43451;49.060;10.616;2023-04-25T04:35:03;96011.88;;;6.67;100.00
57628;BME280;43451;49.060;10.616;2023-04-25T04:37:29;96003.00;;;6.66;100.00
57628;BME280;43451;49.060;10.616;2023-04-25T04:39:55;96014.56;;;6.60;100.00
57628;BME280;43451;49.060;10.616;2023-04-25T04:42:20;96018.75;;;6.46;100.00
57628;BME280;43451;49.060;10.616;2023-04-25T04:44:46;96015.63;;;6.34;100.00
57628;BME280;43451;49.060;10.616;2023-04-25T04:47:11;96013.34;;;6.36;100.00
57628;BME280;43451;49.060;10.616;2023-04-25T04:49:39;96007.19;;;6.49;100.00
57628;BME280;43451;49.060;10.616;2023-04-25T04:52:04;96009.88;;;6.35;100.00
57628;BME280;43451;49.060;10.616;2023-04-25T04:54:30;96010.63;;;6.32;100.00
57628;BME280;43451;49.060;10.616;2023-04-25T04:56:55;96012.59;;;6.49;100.00
57628;BME280;43451;49.060;10.616;2023-04-25T04:59:21;96003.78;;;6.67;100.00
57628;BME280;43451;49.060;10.616;2023-04-25T05:01:46;96008.41;;;6.81;100.00
57628;BME280;43451;49.060;10.616;2023-04-25T05:04:11;96008.41;;;6.88;100.00
57628;BME280;43451;49.060;10.616;2023-04-25T05:06:37;96007.28;;;6.92;100.00
57628;BME280;43451;49.060;10.616;2023-04-25T05:09:02;96014.19;;;6.68;100.00
57628;BME280;43451;49.060;10.616;2023-04-25T05:11:28;96020.34;;;6.65;100.00
57628;BME280;43451;49.060;10.616;2023-04-25T05:13:53;96012.25;;;6.58;100.00
57628;BME280;43451;49.060;10.616;2023-04-25T05:16:19;96016.09;;;6.54;100.00
57628;BME280;43451;49.060;10.616;2023-04-25T05:18:45;96021.50;;;6.54;100.00
57628;BME280;43451;49.060;10.616;2023-04-25T05:21:10;96024.94;;;6.50;100.00
57628;BME280;43451;49.060;10.616;2023-04-25T05:23:36;96030.34;;;6.54;100.00
57628;BME280;43451;49.060;10.616;2023-04-25T05:26:01;96017.25;;;6.60;100.00
57628;BME280;43451;49.060;10.616;2023-04-25T05:28:26;96018.03;;;6.64;100.00
57628;BME280;43451;49.060;10.616;2023-04-25T05:30:52;96025.00;;;6.76;100.00
57628;BME280;43451;49.060;10.616;2023-04-25T05:33:17;96015.75;;;6.87;100.00
57628;BME280;43451;49.060;10.616;2023-04-25T05:35:42;96016.91;;;7.01;100.00
57628;BME280;43451;49.060;10.616;2023-04-25T05:38:08;96011.91;;;7.13;100.00
57628;BME280;43451;49.060;10.616;2023-04-25T05:40:33;96014.63;;;7.17;100.00
57628;BME280;43451;49.060;10.616;2023-04-25T05:42:58;96003.41;;;7.36;100.00
57628;BME280;43451;49.060;10.616;2023-04-25T05:45:24;96005.72;;;7.41;100.00
57628;BME280;43451;49.060;10.616;2023-04-25T05:47:49;96004.16;;;7.58;100.00
57628;BME280;43451;49.060;10.616;2023-04-25T05:50:14;96007.97;;;7.75;100.00
57628;BME280;43451;49.060;10.616;2023-04-25T05:52:40;95997.56;;;7.70;100.00
57628;BME280;43451;49.060;10.616;2023-04-25T05:55:05;96008.00;;;7.72;100.00
57628;BME280;43451;49.060;10.616;2023-04-25T05:57:31;96013.00;;;7.66;100.00
57628;BME280;43451;49.060;10.616;2023-04-25T05:59:56;96024.22;;;7.61;100.00
57628;BME280;43451;49.060;10.616;2023-04-25T06:02:22;96021.94;;;7.49;100.00
57628;BME280;43451;49.060;10.616;2023-04-25T06:04:50;96020.00;;;7.31;100.00
57628;BME280;43451;49.060;10.616;2023-04-25T06:07:16;96019.25;;;7.27;100.00
57628;BME280;43451;49.060;10.616;2023-04-25T06:09:41;96018.47;;;7.34;100.00
57628;BME280;43451;49.060;10.616;2023-04-25T06:12:07;96015.38;;;7.42;100.00
57628;BME280;43451;49.060;10.616;2023-04-25T06:14:33;96025.03;;;7.36;100.00
57628;BME280;43451;49.060;10.616;2023-04-25T06:16:59;96014.59;;;7.53;100.00
57628;BME280;43451;49.060;10.616;2023-04-25T06:19:24;96020.38;;;7.58;100.00
57628;BME280;43451;49.060;10.616;2023-04-25T06:21:50;96018.84;;;7.39;100.00
57628;BME280;43451;49.060;10.616;2023-04-25T06:24:15;96015.78;;;7.23;100.00
57628;BME280;43451;49.060;10.616;2023-04-25T06:26:40;96012.31;;;7.30;100.00
57628;BME280;43451;49.060;10.616;2023-04-25T06:29:05;96018.06;;;7.50;100.00
57628;BME280;43451;49.060;10.616;2023-04-25T06:31:31;96017.66;;;7.55;100.00
57628;BME280;43451;49.060;10.616;2023-04-25T06:33:59;96017.28;;;7.60;100.00
57628;BME280;43451;49.060;10.616;2023-04-25T06:36:24;96011.88;;;7.60;100.00
57628;BME280;43451;49.060;10.616;2023-04-25T06:38:51;96016.53;;;7.49;100.00
57628;BME280;43451;49.060;10.616;2023-04-25T06:41:17;96016.91;;;7.40;100.00
57628;BME280;43451;49.060;10.616;2023-04-25T06:43:42;96023.47;;;7.28;100.00
57628;BME280;43451;49.060;10.616;2023-04-25T06:46:08;96017.31;;;7.20;100.00
57628;BME280;43451;49.060;10.616;2023-04-25T06:48:33;96018.84;;;7.39;100.00
57628;BME280;43451;49.060;10.616;2023-04-25T06:50:58;96021.19;;;7.23;100.00
57628;BME280;43451;49.060;10.616;2023-04-25T06:53:24;96015.00;;;7.12;100.00
57628;BME280;43451;49.060;10.616;2023-04-25T06:55:49;96017.31;;;7.10;100.00
57628;BME280;43451;49.060;10.616;2023-04-25T06:58:15;96017.31;;;7.10;100.00
57628;BME280;43451;49.060;10.616;2023-04-25T07:00:40;96025.81;;;7.08;100.00
57628;BME280;43451;49.060;10.616;2023-04-25T07:03:05;96022.34;;;7.08;100.00
57628;BME280;43451;49.060;10.616;2023-04-25T07:05:31;96030.84;;;7.17;100.00
57628;BME280;43451;49.060;10.616;2023-04-25T07:07:56;96031.22;;;7.01;100.00
57628;BME280;43451;49.060;10.616;2023-04-25T07:10:21;96043.53;;;6.91;100.00
57628;BME280;43451;49.060;10.616;2023-04-25T07:12:47;96047.38;;;6.90;100.00
57628;BME280;43451;49.060;10.616;2023-04-25T07:15:12;96055.88;;;6.89;100.00
57628;BME280;43451;49.060;10.616;2023-04-25T07:17:37;96048.84;;;6.59;100.00
57628;BME280;43451;49.060;10.616;2023-04-25T07:20:03;96055.34;;;6.40;100.00
57628;BME280;43451;49.060;10.616;2023-04-25T07:22:29;96056.53;;;6.43;100.00
57628;BME280;43451;49.060;10.616;2023-04-25T07:24:54;96053.88;;;6.54;100.00
57628;BME280;43451;49.060;10.616;2023-04-25T07:27:20;96049.59;;;6.49;100.00
57628;BME280;43451;49.060;10.616;2023-04-25T07:29:45;96045.72;;;6.39;100.00
57628;BME280;43451;49.060;10.616;2023-04-25T07:32:11;96045.69;;;6.32;100.00
57628;BME280;43451;49.060;10.616;2023-04-25T07:34:38;96048.75;;;6.31;100.00
57628;BME280;43451;49.060;10.616;2023-04-25T07:37:04;96049.56;;;6.38;100.00
57628;BME280;43451;49.060;10.616;2023-04-25T07:39:29;96055.75;;;6.49;100.00
57628;BME280;43451;49.060;10.616;2023-04-25T07:41:54;96051.94;;;6.50;100.00
57628;BME280;43451;49.060;10.616;2023-04-25T07:44:20;96062.69;;;6.43;100.00
57628;BME280;43451;49.060;10.616;2023-04-25T07:46:45;96062.31;;;6.38;100.00
57628;BME280;43451;49.060;10.616;2023-04-25T07:49:10;96062.69;;;6.43;100.00
57628;BME280;43451;49.060;10.616;2023-04-25T07:51:36;96066.59;;;6.57;100.00
57628;BME280;43451;49.060;10.616;2023-04-25T07:54:01;96067.41;;;6.75;100.00
57628;BME280;43451;49.060;10.616;2023-04-25T07:56:27;96067.84;;;6.95;100.00
57628;BME280;43451;49.060;10.616;2023-04-25T07:58:52;96068.25;;;7.08;100.00
57628;BME280;43451;49.060;10.616;2023-04-25T08:01:17;96068.97;;;6.97;100.00
57628;BME280;43451;49.060;10.616;2023-04-25T08:03:43;96069.78;;;7.16;100.00
57628;BME280;43451;49.060;10.616;2023-04-25T08:06:09;96076.38;;;7.36;100.00
57628;BME280;43451;49.060;10.616;2023-04-25T08:08:34;96079.81;;;7.48;100.00
57628;BME280;43451;49.060;10.616;2023-04-25T08:10:59;96079.81;;;7.48;100.00
57628;BME280;43451;49.060;10.616;2023-04-25T08:13:25;96072.88;;;7.47;100.00
57628;BME280;43451;49.060;10.616;2023-04-25T08:15:50;96084.47;;;7.40;100.00
57628;BME280;43451;49.060;10.616;2023-04-25T08:18:15;96082.16;;;7.31;100.00
57628;BME280;43451;49.060;10.616;2023-04-25T08:20:41;96088.31;;;7.39;100.00
57628;BME280;43451;49.060;10.616;2023-04-25T08:23:06;96093.72;;;7.28;100.00
57628;BME280;43451;49.060;10.616;2023-04-25T08:25:32;96098.38;;;7.20;100.00
57628;BME280;43451;49.060;10.616;2023-04-25T08:27:57;96099.84;;;7.00;100.00
57628;BME280;43451;49.060;10.616;2023-04-25T08:30:24;96104.09;;;6.90;100.00
57628;BME280;43451;49.060;10.616;2023-04-25T08:32:49;96109.88;;;6.92;100.00
57628;BME280;43451;49.060;10.616;2023-04-25T08:35:15;96109.06;;;6.81;100.00
57628;BME280;43451;49.060;10.616;2023-04-25T08:37:41;96111.41;;;6.86;100.00
57628;BME280;43451;49.060;10.616;2023-04-25T08:40:07;96123.75;;;6.87;100.00
57628;BME280;43451;49.060;10.616;2023-04-25T08:42:38;96120.75;;;7.14;100.00
57628;BME280;43451;49.060;10.616;2023-04-25T08:45:06;96112.25;;;7.15;100.00
57628;BME280;43451;49.060;10.616;2023-04-25T08:47:32;96118.44;;;7.44;100.00
57628;BME280;43451;49.060;10.616;2023-04-25T08:49:58;96122.31;;;7.51;100.00
57628;BME280;43451;49.060;10.616;2023-04-25T08:52:24;96126.19;;;7.42;100.00
57628;BME280;43451;49.060;10.616;2023-04-25T08:54:52;96139.28;;;7.48;100.00
57628;BME280;43451;49.060;10.616;2023-04-25T08:57:19;96137.38;;;7.59;100.00
57628;BME280;43451;49.060;10.616;2023-04-25T08:59:46;96146.66;;;7.65;100.00
57628;BME280;43451;49.060;10.616;2023-04-25T09:02:12;96151.66;;;7.63;100.00
57628;BME280;43451;49.060;10.616;2023-04-25T09:04:43;96151.66;;;7.70;100.00
57628;BME280;43451;49.060;10.616;2023-04-25T09:07:09;96154.75;;;7.83;100.00
57628;BME280;43451;49.060;10.616;2023-04-25T09:09:34;96162.06;;;7.89;100.00
57628;BME280;43451;49.060;10.616;2023-04-25T09:12:00;96160.53;;;7.88;100.00
57628;BME280;43451;49.060;10.616;2023-04-25T09:14:26;96169.44;;;7.78;100.00
57628;BME280;43451;49.060;10.616;2023-04-25T09:19:21;96162.84;;;7.83;100.00
57628;BME280;43451;49.060;10.616;2023-04-25T09:21:50;96164.81;;;7.93;100.00
57628;BME280;43451;49.060;10.616;2023-04-25T09:24:16;96167.88;;;7.99;100.00
57628;BME280;43451;49.060;10.616;2023-04-25T09:26:41;96172.91;;;7.97;100.00
57628;BME280;43451;49.060;10.616;2023-04-25T09:29:07;96172.09;;;8.18;100.00
57628;BME280;43451;49.060;10.616;2023-04-25T09:31:33;96161.28;;;8.39;100.00
57628;BME280;43451;49.060;10.616;2023-04-25T09:34:01;96160.00;;;8.69;100.00
57628;BME280;43451;49.060;10.616;2023-04-25T09:36:27;96170.38;;;8.95;100.00
57628;BME280;43451;49.060;10.616;2023-04-25T09:38:52;96162.59;;;9.01;89.81
57628;BME280;43451;49.060;10.616;2023-04-25T09:41:22;96172.31;;;8.88;89.60
57628;BME280;43451;49.060;10.616;2023-04-25T09:43:48;96165.44;;;8.69;92.79
57628;BME280;43451;49.060;10.616;2023-04-25T09:46:14;96170.13;;;8.36;100.00
57628;BME280;43451;49.060;10.616;2023-04-25T09:48:39;96171.31;;;8.42;98.37
57628;BME280;43451;49.060;10.616;2023-04-25T09:51:09;96175.56;;;8.54;98.05
57628;BME280;43451;49.060;10.616;2023-04-25T09:53:35;96180.13;;;8.71;97.74
57628;BME280;43451;49.060;10.616;2023-04-25T09:56:03;96177.78;;;8.77;96.51
57628;BME280;43451;49.060;10.616;2023-04-25T09:58:29;96175.03;;;8.88;96.62
57628;BME280;43451;49.060;10.616;2023-04-25T10:00:55;96180.84;;;8.90;90.36
57628;BME280;43451;49.060;10.616;2023-04-25T10:03:24;96172.34;;;8.80;92.02
57628;BME280;43451;49.060;10.616;2023-04-25T10:05:51;96169.25;;;8.86;94.60
57628;BME280;43451;49.060;10.616;2023-04-25T10:08:17;96168.88;;;8.83;93.40
57628;BME280;43451;49.060;10.616;2023-04-25T10:10:43;96171.59;;;8.80;93.17
57628;BME280;43451;49.060;10.616;2023-04-25T10:13:08;96176.25;;;8.69;100.00
57628;BME280;43451;49.060;10.616;2023-04-25T10:15:34;96178.56;;;8.77;98.58
57628;BME280;43451;49.060;10.616;2023-04-25T10:18:00;96166.91;;;8.95;93.13
57628;BME280;43451;49.060;10.616;2023-04-25T10:20:26;96176.06;;;9.15;92.67
57628;BME280;43451;49.060;10.616;2023-04-25T10:22:52;96167.53;;;9.20;93.22
57628;BME280;43451;49.060;10.616;2023-04-25T10:25:21;96164.41;;;9.25;90.95
57628;BME280;43451;49.060;10.616;2023-04-25T10:27:49;96165.19;;;9.22;92.59
57628;BME280;43451;49.060;10.616;2023-04-25T10:30:16;96170.66;;;9.15;100.00
57628;BME280;43451;49.060;10.616;2023-04-25T10:32:41;96169.38;;;9.34;98.99
57628;BME280;43451;49.060;10.616;2023-04-25T10:35:17;96172.81;;;9.42;88.07
57628;BME280;43451;49.060;10.616;2023-04-25T10:40:23;96149.50;;;9.55;86.94
57628;BME280;43451;49.060;10.616;2023-04-25T10:42:51;96158.22;;;9.81;87.05
57628;BME280;43451;49.060;10.616;2023-04-25T10:45:16;96160.16;;;9.80;85.98
57628;BME280;43451;49.060;10.616;2023-04-25T10:47:45;96157.47;;;9.76;83.95
57628;BME280;43451;49.060;10.616;2023-04-25T10:50:11;96164.38;;;9.85;82.34
57628;BME280;43451;49.060;10.616;2023-04-25T10:52:39;96157.78;;;9.86;81.12
57628;BME280;43451;49.060;10.616;2023-04-25T10:55:07;96167.84;;;9.89;76.64
57628;BME280;43451;49.060;10.616;2023-04-25T10:57:42;96159.47;;;10.14;80.71
57628;BME280;43451;49.060;10.616;2023-04-25T11:00:13;96171.91;;;10.11;75.84
57628;BME280;43451;49.060;10.616;2023-04-25T11:02:44;96165.66;;;10.14;78.84
57628;BME280;43451;49.060;10.616;2023-04-25T11:05:10;96163.50;;;10.43;72.25
57628;BME280;43451;49.060;10.616;2023-04-25T11:07:58;96165.81;;;10.45;71.95
57628;BME280;43451;49.060;10.616;2023-04-25T11:10:28;96173.72;;;10.29;70.25
57628;BME280;43451;49.060;10.616;2023-04-25T11:12:57;96171.41;;;10.23;78.59
57628;BME280;43451;49.060;10.616;2023-04-25T11:15:23;96165.13;;;10.37;72.37
57628;BME280;43451;49.060;10.616;2023-04-25T11:17:50;96168.13;;;10.43;70.55
57628;BME280;43451;49.060;10.616;2023-04-25T11:20:16;96158.84;;;10.44;70.79
57628;BME280;43451;49.060;10.616;2023-04-25T11:22:41;96167.72;;;10.48;71.22
57628;BME280;43451;49.060;10.616;2023-04-25T11:25:09;96160.66;;;10.54;72.33
57628;BME280;43451;49.060;10.616;2023-04-25T11:27:53;96164.41;;;10.67;70.56
57628;BME280;43451;49.060;10.616;2023-04-25T11:30:19;96150.72;;;10.75;68.03
57628;BME280;43451;49.060;10.616;2023-04-25T11:32:45;96155.66;;;10.83;76.68
57628;BME280;43451;49.060;10.616;2023-04-25T11:35:11;96163.81;;;10.83;75.43
57628;BME280;43451;49.060;10.616;2023-04-25T11:37:38;96157.47;;;10.93;74.43
57628;BME280;43451;49.060;10.616;2023-04-25T11:40:04;96150.94;;;10.91;82.19
57628;BME280;43451;49.060;10.616;2023-04-25T11:42:31;96158.53;;;10.73;72.38
57628;BME280;43451;49.060;10.616;2023-04-25T11:44:57;96165.75;;;10.49;73.81
57628;BME280;43451;49.060;10.616;2023-04-25T11:47:27;96170.63;;;10.27;74.48
57628;BME280;43451;49.060;10.616;2023-04-25T11:49:53;96181.94;;;10.18;78.17
57628;BME280;43451;49.060;10.616;2023-04-25T11:52:18;96182.41;;;10.09;78.02
57628;BME280;43451;49.060;10.616;2023-04-25T11:54:44;96179.22;;;10.18;82.19
57628;BME280;43451;49.060;10.616;2023-04-25T11:57:09;96168.34;;;10.21;75.42
57628;BME280;43451;49.060;10.616;2023-04-25T11:59:35;96174.50;;;10.26;74.97
57628;BME280;43451;49.060;10.616;2023-04-25T12:02:00;96171.22;;;10.45;71.86
57628;BME280;43451;49.060;10.616;2023-04-25T12:04:29;96174.38;;;10.43;69.72
57628;BME280;43451;49.060;10.616;2023-04-25T12:06:55;96175.47;;;10.46;70.29
57628;BME280;43451;49.060;10.616;2023-04-25T12:09:21;96172.03;;;10.42;65.79
57628;BME280;43451;49.060;10.616;2023-04-25T12:11:53;96183.28;;;10.44;67.66
57628;BME280;43451;49.060;10.616;2023-04-25T12:14:22;96184.22;;;10.27;65.76
57628;BME280;43451;49.060;10.616;2023-04-25T12:16:49;96192.22;;;9.96;66.11
57628;BME280;43451;49.060;10.616;2023-04-25T12:19:18;96185.66;;;9.90;65.97
57628;BME280;43451;49.060;10.616;2023-04-25T12:21:44;96187.97;;;9.91;70.59
57628;BME280;43451;49.060;10.616;2023-04-25T12:24:16;96191.75;;;10.05;71.30
57628;BME280;43451;49.060;10.616;2023-04-25T12:26:59;96183.81;;;10.28;72.05
57628;BME280;43451;49.060;10.616;2023-04-25T12:29:25;96194.91;;;10.44;69.79
57628;BME280;43451;49.060;10.616;2023-04-25T12:31:51;96190.66;;;10.43;65.80
57628;BME280;43451;49.060;10.616;2023-04-25T12:34:18;96188.50;;;10.62;65.96
57628;BME280;43451;49.060;10.616;2023-04-25T12:36:43;96193.25;;;10.54;61.14
57628;BME280;43451;49.060;10.616;2023-04-25T12:39:13;96194.91;;;10.44;63.20
57628;BME280;43451;49.060;10.616;2023-04-25T12:41:40;96203.25;;;10.19;67.06
57628;BME280;43451;49.060;10.616;2023-04-25T12:44:05;96216.63;;;9.96;74.38
57628;BME280;43451;49.060;10.616;2023-04-25T12:46:31;96220.91;;;9.93;71.36
57628;BME280;43451;49.060;10.616;2023-04-25T12:48:56;96208.50;;;9.92;72.20